Charlack, Missouri
Current Conditions -  °F | °C
As of 6:29 AM on Sunday 25 Jan 2015 (Local Time) from KSTL Reporting Station
Light Rain Light Rain  
Wind Chill: 41°   Ceiling: 2800
Heat Index: 46°   Visibility: 4mi
Dew Point: 41°   Wind: 13mph
Humidity: 81%   Direction: 220°SW
Pressure: 29.6"   Gusts: NA
Location:  38.702°N, 90.3628°W
Report Text: KSTL 251229Z 22011KT 4SM -RA BKN028 OVC036 08/05 A2960 RMK AO2 RAB21 P0000
Loading
Personal Weather Stations






























Interactive Weather Map New forecast layout! Learn more

10-Day Weather Forecast

Advertisements
Track Severe Weather on mobile